sensor_id;sensor_type;location;lat;lon;timestamp;P1;durP1;ratioP1;P2;durP2;ratioP2
54539;SDS011;40438;52.992;18.604;2023-05-10T00:00:06;5.47;;;3.03;;
54539;SDS011;40438;52.992;18.604;2023-05-10T00:02:38;5.85;;;2.70;;
54539;SDS011;40438;52.992;18.604;2023-05-10T00:05:04;5.13;;;2.92;;
54539;SDS011;40438;52.992;18.604;2023-05-10T00:07:32;7.65;;;2.72;;
54539;SDS011;40438;52.992;18.604;2023-05-10T00:09:58;5.95;;;2.58;;
54539;SDS011;40438;52.992;18.604;2023-05-10T00:12:24;5.20;;;2.70;;
54539;SDS011;40438;52.992;18.604;2023-05-10T00:14:49;5.47;;;2.80;;
54539;SDS011;40438;52.992;18.604;2023-05-10T00:17:15;4.03;;;2.25;;
54539;SDS011;40438;52.992;18.604;2023-05-10T00:19:41;4.95;;;2.80;;
54539;SDS011;40438;52.992;18.604;2023-05-10T00:22:07;4.53;;;2.67;;
54539;SDS011;40438;52.992;18.604;2023-05-10T00:24:34;4.57;;;2.60;;
54539;SDS011;40438;52.992;18.604;2023-05-10T00:27:00;5.55;;;2.90;;
54539;SDS011;40438;52.992;18.604;2023-05-10T00:29:25;7.10;;;2.60;;
54539;SDS011;40438;52.992;18.604;2023-05-10T00:31:51;4.40;;;2.80;;
54539;SDS011;40438;52.992;18.604;2023-05-10T00:34:17;5.15;;;2.60;;
54539;SDS011;40438;52.992;18.604;2023-05-10T00:36:43;9.20;;;3.25;;
54539;SDS011;40438;52.992;18.604;2023-05-10T00:39:09;7.38;;;2.70;;
54539;SDS011;40438;52.992;18.604;2023-05-10T00:41:38;4.85;;;2.45;;
54539;SDS011;40438;52.992;18.604;2023-05-10T00:44:05;3.72;;;2.45;;
54539;SDS011;40438;52.992;18.604;2023-05-10T00:46:31;4.82;;;2.38;;
54539;SDS011;40438;52.992;18.604;2023-05-10T00:48:57;4.68;;;2.45;;
54539;SDS011;40438;52.992;18.604;2023-05-10T00:51:23;8.40;;;3.10;;
54539;SDS011;40438;52.992;18.604;2023-05-10T00:53:49;9.95;;;2.53;;
54539;SDS011;40438;52.992;18.604;2023-05-10T00:56:16;6.53;;;2.67;;
54539;SDS011;40438;52.992;18.604;2023-05-10T00:58:43;4.57;;;2.35;;
54539;SDS011;40438;52.992;18.604;2023-05-10T01:01:09;4.30;;;2.15;;
54539;SDS011;40438;52.992;18.604;2023-05-10T01:03:36;4.70;;;2.85;;
54539;SDS011;40438;52.992;18.604;2023-05-10T01:06:02;5.68;;;2.67;;
54539;SDS011;40438;52.992;18.604;2023-05-10T01:08:28;5.57;;;2.50;;
54539;SDS011;40438;52.992;18.604;2023-05-10T01:10:54;4.68;;;2.53;;
54539;SDS011;40438;52.992;18.604;2023-05-10T01:13:23;5.00;;;2.55;;
54539;SDS011;40438;52.992;18.604;2023-05-10T01:16:00;4.55;;;2.30;;
54539;SDS011;40438;52.992;18.604;2023-05-10T01:18:26;9.00;;;2.85;;
54539;SDS011;40438;52.992;18.604;2023-05-10T01:20:54;4.22;;;2.47;;
54539;SDS011;40438;52.992;18.604;2023-05-10T01:29:53;6.35;;;2.40;;
54539;SDS011;40438;52.992;18.604;2023-05-10T01:32:36;5.25;;;2.45;;
54539;SDS011;40438;52.992;18.604;2023-05-10T01:35:09;6.50;;;2.45;;
54539;SDS011;40438;52.992;18.604;2023-05-10T01:37:41;6.03;;;2.67;;
54539;SDS011;40438;52.992;18.604;2023-05-10T01:40:13;5.80;;;2.67;;
54539;SDS011;40438;52.992;18.604;2023-05-10T01:42:46;5.03;;;2.95;;
54539;SDS011;40438;52.992;18.604;2023-05-10T01:45:20;7.18;;;2.70;;
54539;SDS011;40438;52.992;18.604;2023-05-10T01:47:53;4.07;;;2.47;;
54539;SDS011;40438;52.992;18.604;2023-05-10T01:50:24;5.13;;;2.47;;
54539;SDS011;40438;52.992;18.604;2023-05-10T01:52:54;5.43;;;2.90;;
54539;SDS011;40438;52.992;18.604;2023-05-10T01:55:22;4.80;;;2.80;;
54539;SDS011;40438;52.992;18.604;2023-05-10T01:57:52;4.47;;;2.72;;
54539;SDS011;40438;52.992;18.604;2023-05-10T02:00:25;4.03;;;2.67;;
54539;SDS011;40438;52.992;18.604;2023-05-10T02:02:53;4.78;;;2.50;;
54539;SDS011;40438;52.992;18.604;2023-05-10T02:05:20;6.85;;;2.75;;
54539;SDS011;40438;52.992;18.604;2023-05-10T02:07:47;4.25;;;2.55;;
54539;SDS011;40438;52.992;18.604;2023-05-10T02:10:15;5.97;;;2.88;;
54539;SDS011;40438;52.992;18.604;2023-05-10T02:12:43;5.43;;;2.30;;
54539;SDS011;40438;52.992;18.604;2023-05-10T02:15:12;4.20;;;2.58;;
54539;SDS011;40438;52.992;18.604;2023-05-10T02:17:43;5.53;;;2.90;;
54539;SDS011;40438;52.992;18.604;2023-05-10T02:20:12;8.68;;;2.55;;
54539;SDS011;40438;52.992;18.604;2023-05-10T02:22:41;5.47;;;2.78;;
54539;SDS011;40438;52.992;18.604;2023-05-10T02:25:08;5.78;;;3.15;;
54539;SDS011;40438;52.992;18.604;2023-05-10T02:27:34;5.05;;;2.25;;
54539;SDS011;40438;52.992;18.604;2023-05-10T02:30:01;4.88;;;2.90;;
54539;SDS011;40438;52.992;18.604;2023-05-10T02:32:28;5.13;;;2.55;;
54539;SDS011;40438;52.992;18.604;2023-05-10T02:34:55;5.65;;;3.20;;
54539;SDS011;40438;52.992;18.604;2023-05-10T02:37:23;4.45;;;2.83;;
54539;SDS011;40438;52.992;18.604;2023-05-10T02:39:52;8.15;;;2.65;;
54539;SDS011;40438;52.992;18.604;2023-05-10T02:42:22;7.28;;;3.10;;
54539;SDS011;40438;52.992;18.604;2023-05-10T02:44:51;5.18;;;2.88;;
54539;SDS011;40438;52.992;18.604;2023-05-10T02:47:19;4.75;;;2.65;;
54539;SDS011;40438;52.992;18.604;2023-05-10T02:49:45;6.55;;;3.00;;
54539;SDS011;40438;52.992;18.604;2023-05-10T02:52:11;6.20;;;3.05;;
54539;SDS011;40438;52.992;18.604;2023-05-10T02:54:46;7.65;;;3.00;;
54539;SDS011;40438;52.992;18.604;2023-05-10T02:57:15;5.90;;;2.65;;
54539;SDS011;40438;52.992;18.604;2023-05-10T02:59:42;5.43;;;3.05;;
54539;SDS011;40438;52.992;18.604;2023-05-10T03:02:08;5.60;;;2.67;;
54539;SDS011;40438;52.992;18.604;2023-05-10T03:04:35;6.82;;;2.50;;
54539;SDS011;40438;52.992;18.604;2023-05-10T03:07:01;5.45;;;2.95;;
54539;SDS011;40438;52.992;18.604;2023-05-10T03:09:27;11.38;;;2.97;;
54539;SDS011;40438;52.992;18.604;2023-05-10T03:11:56;4.32;;;2.83;;
54539;SDS011;40438;52.992;18.604;2023-05-10T03:14:31;5.53;;;2.75;;
54539;SDS011;40438;52.992;18.604;2023-05-10T03:17:06;5.00;;;2.65;;
54539;SDS011;40438;52.992;18.604;2023-05-10T03:19:36;5.97;;;2.80;;
54539;SDS011;40438;52.992;18.604;2023-05-10T03:22:08;5.80;;;2.75;;
54539;SDS011;40438;52.992;18.604;2023-05-10T03:24:37;5.45;;;2.67;;
54539;SDS011;40438;52.992;18.604;2023-05-10T03:27:07;4.85;;;3.13;;
54539;SDS011;40438;52.992;18.604;2023-05-10T03:29:34;5.90;;;2.90;;
54539;SDS011;40438;52.992;18.604;2023-05-10T03:32:01;7.90;;;2.72;;
54539;SDS011;40438;52.992;18.604;2023-05-10T03:34:30;6.88;;;2.75;;
54539;SDS011;40438;52.992;18.604;2023-05-10T03:36:56;8.88;;;3.15;;
54539;SDS011;40438;52.992;18.604;2023-05-10T03:39:23;6.63;;;3.10;;
54539;SDS011;40438;52.992;18.604;2023-05-10T03:41:53;4.93;;;2.75;;
54539;SDS011;40438;52.992;18.604;2023-05-10T03:44:20;4.32;;;2.72;;
54539;SDS011;40438;52.992;18.604;2023-05-10T03:46:46;6.85;;;3.17;;
54539;SDS011;40438;52.992;18.604;2023-05-10T03:49:12;7.68;;;3.53;;
54539;SDS011;40438;52.992;18.604;2023-05-10T03:51:38;6.88;;;2.97;;
54539;SDS011;40438;52.992;18.604;2023-05-10T03:54:03;5.78;;;2.67;;
54539;SDS011;40438;52.992;18.604;2023-05-10T03:56:29;10.35;;;3.10;;
54539;SDS011;40438;52.992;18.604;2023-05-10T03:58:56;8.38;;;3.53;;
54539;SDS011;40438;52.992;18.604;2023-05-10T04:01:24;7.47;;;2.63;;
54539;SDS011;40438;52.992;18.604;2023-05-10T04:03:49;8.55;;;3.20;;
54539;SDS011;40438;52.992;18.604;2023-05-10T04:06:15;6.45;;;3.33;;
54539;SDS011;40438;52.992;18.604;2023-05-10T04:08:41;5.72;;;2.80;;
54539;SDS011;40438;52.992;18.604;2023-05-10T04:11:07;5.13;;;2.67;;
54539;SDS011;40438;52.992;18.604;2023-05-10T04:13:35;5.38;;;2.83;;
54539;SDS011;40438;52.992;18.604;2023-05-10T04:16:01;6.35;;;3.20;;
54539;SDS011;40438;52.992;18.604;2023-05-10T04:18:29;10.60;;;3.35;;
54539;SDS011;40438;52.992;18.604;2023-05-10T04:20:55;5.63;;;3.22;;
54539;SDS011;40438;52.992;18.604;2023-05-10T04:23:20;5.68;;;2.67;;
54539;SDS011;40438;52.992;18.604;2023-05-10T04:25:46;6.43;;;3.10;;
54539;SDS011;40438;52.992;18.604;2023-05-10T04:28:12;4.90;;;2.78;;
54539;SDS011;40438;52.992;18.604;2023-05-10T04:30:38;6.00;;;3.08;;
54539;SDS011;40438;52.992;18.604;2023-05-10T04:33:04;5.75;;;2.80;;
54539;SDS011;40438;52.992;18.604;2023-05-10T04:35:31;5.38;;;3.28;;
54539;SDS011;40438;52.992;18.604;2023-05-10T04:37:57;6.22;;;3.08;;
54539;SDS011;40438;52.992;18.604;2023-05-10T04:40:22;3.38;;;2.53;;
54539;SDS011;40438;52.992;18.604;2023-05-10T04:42:48;5.63;;;2.58;;
54539;SDS011;40438;52.992;18.604;2023-05-10T04:45:14;5.30;;;2.70;;
54539;SDS011;40438;52.992;18.604;2023-05-10T04:47:40;3.47;;;2.70;;
54539;SDS011;40438;52.992;18.604;2023-05-10T04:50:06;5.30;;;2.75;;
54539;SDS011;40438;52.992;18.604;2023-05-10T04:52:34;5.75;;;2.58;;
54539;SDS011;40438;52.992;18.604;2023-05-10T04:54:59;11.15;;;3.10;;
54539;SDS011;40438;52.992;18.604;2023-05-10T04:57:25;3.55;;;2.15;;
54539;SDS011;40438;52.992;18.604;2023-05-10T04:59:51;7.25;;;2.83;;
54539;SDS011;40438;52.992;18.604;2023-05-10T05:02:17;4.55;;;2.80;;
54539;SDS011;40438;52.992;18.604;2023-05-10T05:04:43;5.53;;;2.75;;
54539;SDS011;40438;52.992;18.604;2023-05-10T05:07:08;5.70;;;2.67;;
54539;SDS011;40438;52.992;18.604;2023-05-10T05:09:36;7.65;;;2.90;;
54539;SDS011;40438;52.992;18.604;2023-05-10T05:12:01;6.40;;;2.55;;
54539;SDS011;40438;52.992;18.604;2023-05-10T05:14:27;5.38;;;2.63;;
54539;SDS011;40438;52.992;18.604;2023-05-10T05:16:53;2.92;;;1.85;;
54539;SDS011;40438;52.992;18.604;2023-05-10T05:19:19;8.23;;;3.13;;
54539;SDS011;40438;52.992;18.604;2023-05-10T05:21:45;4.28;;;2.38;;
54539;SDS011;40438;52.992;18.604;2023-05-10T05:24:10;5.30;;;2.70;;
54539;SDS011;40438;52.992;18.604;2023-05-10T05:26:38;5.28;;;2.42;;
54539;SDS011;40438;52.992;18.604;2023-05-10T05:29:04;5.10;;;2.38;;
54539;SDS011;40438;52.992;18.604;2023-05-10T05:31:29;8.32;;;2.67;;
54539;SDS011;40438;52.992;18.604;2023-05-10T05:33:55;6.47;;;2.67;;
54539;SDS011;40438;52.992;18.604;2023-05-10T05:36:21;5.55;;;2.47;;
54539;SDS011;40438;52.992;18.604;2023-05-10T05:38:47;7.80;;;2.22;;
54539;SDS011;40438;52.992;18.604;2023-05-10T05:41:13;6.97;;;3.00;;
54539;SDS011;40438;52.992;18.604;2023-05-10T05:43:40;6.35;;;2.65;;
54539;SDS011;40438;52.992;18.604;2023-05-10T05:46:06;4.90;;;2.60;;
54539;SDS011;40438;52.992;18.604;2023-05-10T05:48:32;4.57;;;2.50;;
54539;SDS011;40438;52.992;18.604;2023-05-10T05:50:57;7.47;;;2.50;;
54539;SDS011;40438;52.992;18.604;2023-05-10T05:53:23;4.70;;;2.30;;
54539;SDS011;40438;52.992;18.604;2023-05-10T05:55:52;4.60;;;2.40;;
54539;SDS011;40438;52.992;18.604;2023-05-10T05:58:18;4.97;;;2.33;;
54539;SDS011;40438;52.992;18.604;2023-05-10T06:00:45;6.57;;;2.50;;
54539;SDS011;40438;52.992;18.604;2023-05-10T06:03:11;4.38;;;2.53;;
54539;SDS011;40438;52.992;18.604;2023-05-10T06:05:37;5.18;;;2.65;;
54539;SDS011;40438;52.992;18.604;2023-05-10T06:08:03;7.40;;;2.30;;
54539;SDS011;40438;52.992;18.604;2023-05-10T06:10:29;10.20;;;3.00;;
54539;SDS011;40438;52.992;18.604;2023-05-10T06:12:55;5.90;;;3.17;;
54539;SDS011;40438;52.992;18.604;2023-05-10T06:15:20;4.88;;;2.10;;
54539;SDS011;40438;52.992;18.604;2023-05-10T06:17:48;4.93;;;2.28;;
54539;SDS011;40438;52.992;18.604;2023-05-10T06:20:13;7.43;;;2.88;;
54539;SDS011;40438;52.992;18.604;2023-05-10T06:22:39;6.18;;;2.17;;
54539;SDS011;40438;52.992;18.604;2023-05-10T06:25:06;9.00;;;2.80;;
54539;SDS011;40438;52.992;18.604;2023-05-10T06:27:33;5.35;;;2.47;;
54539;SDS011;40438;52.992;18.604;2023-05-10T06:29:59;3.97;;;2.35;;
54539;SDS011;40438;52.992;18.604;2023-05-10T06:32:24;4.10;;;2.03;;
54539;SDS011;40438;52.992;18.604;2023-05-10T06:34:51;2.67;;;1.98;;
54539;SDS011;40438;52.992;18.604;2023-05-10T06:37:17;5.38;;;2.10;;
54539;SDS011;40438;52.992;18.604;2023-05-10T06:39:43;10.93;;;2.60;;
54539;SDS011;40438;52.992;18.604;2023-05-10T06:42:09;6.85;;;1.95;;
54539;SDS011;40438;52.992;18.604;2023-05-10T06:44:35;6.03;;;2.30;;
54539;SDS011;40438;52.992;18.604;2023-05-10T06:47:00;30.90;;;4.22;;
54539;SDS011;40438;52.992;18.604;2023-05-10T06:49:26;8.70;;;2.75;;
54539;SDS011;40438;52.992;18.604;2023-05-10T06:51:54;6.82;;;2.20;;
54539;SDS011;40438;52.992;18.604;2023-05-10T06:54:20;25.42;;;4.03;;
54539;SDS011;40438;52.992;18.604;2023-05-10T06:56:46;21.20;;;8.00;;
54539;SDS011;40438;52.992;18.604;2023-05-10T06:59:12;8.75;;;2.95;;
54539;SDS011;40438;52.992;18.604;2023-05-10T07:01:38;8.77;;;4.20;;
54539;SDS011;40438;52.992;18.604;2023-05-10T07:04:03;11.88;;;2.92;;
54539;SDS011;40438;52.992;18.604;2023-05-10T07:06:29;7.22;;;3.33;;
54539;SDS011;40438;52.992;18.604;2023-05-10T07:08:56;7.85;;;2.88;;
54539;SDS011;40438;52.992;18.604;2023-05-10T07:11:22;5.60;;;2.08;;
54539;SDS011;40438;52.992;18.604;2023-05-10T07:13:48;4.15;;;2.15;;
54539;SDS011;40438;52.992;18.604;2023-05-10T07:16:15;6.90;;;2.05;;
54539;SDS011;40438;52.992;18.604;2023-05-10T07:18:40;5.30;;;2.55;;
54539;SDS011;40438;52.992;18.604;2023-05-10T07:21:06;5.68;;;2.75;;
54539;SDS011;40438;52.992;18.604;2023-05-10T07:23:32;7.40;;;2.03;;
54539;SDS011;40438;52.992;18.604;2023-05-10T07:25:59;3.00;;;1.63;;
54539;SDS011;40438;52.992;18.604;2023-05-10T07:28:25;3.30;;;1.73;;
54539;SDS011;40438;52.992;18.604;2023-05-10T07:30:51;5.55;;;2.30;;
54539;SDS011;40438;52.992;18.604;2023-05-10T07:33:16;6.85;;;2.47;;
54539;SDS011;40438;52.992;18.604;2023-05-10T07:35:42;7.25;;;2.38;;
54539;SDS011;40438;52.992;18.604;2023-05-10T07:38:08;3.90;;;2.08;;
54539;SDS011;40438;52.992;18.604;2023-05-10T07:40:34;6.90;;;2.00;;
54539;SDS011;40438;52.992;18.604;2023-05-10T07:43:01;3.35;;;1.73;;
54539;SDS011;40438;52.992;18.604;2023-05-10T07:45:27;5.38;;;2.10;;
54539;SDS011;40438;52.992;18.604;2023-05-10T07:47:53;11.43;;;1.58;;
54539;SDS011;40438;52.992;18.604;2023-05-10T07:50:19;6.65;;;2.10;;
54539;SDS011;40438;52.992;18.604;2023-05-10T07:52:44;4.38;;;2.10;;
54539;SDS011;40438;52.992;18.604;2023-05-10T07:55:10;5.07;;;1.70;;
54539;SDS011;40438;52.992;18.604;2023-05-10T07:57:37;4.90;;;1.73;;
54539;SDS011;40438;52.992;18.604;2023-05-10T08:00:05;3.35;;;1.77;;
54539;SDS011;40438;52.992;18.604;2023-05-10T08:02:38;4.53;;;1.55;;
54539;SDS011;40438;52.992;18.604;2023-05-10T08:05:04;10.05;;;2.30;;
54539;SDS011;40438;52.992;18.604;2023-05-10T08:07:30;2.83;;;1.85;;
54539;SDS011;40438;52.992;18.604;2023-05-10T08:09:56;5.18;;;2.10;;
54539;SDS011;40438;52.992;18.604;2023-05-10T08:12:22;6.00;;;2.20;;
54539;SDS011;40438;52.992;18.604;2023-05-10T08:14:47;10.45;;;2.22;;
54539;SDS011;40438;52.992;18.604;2023-05-10T08:17:15;8.07;;;2.47;;
54539;SDS011;40438;52.992;18.604;2023-05-10T08:19:40;3.42;;;1.90;;
54539;SDS011;40438;52.992;18.604;2023-05-10T08:22:06;6.22;;;1.80;;
54539;SDS011;40438;52.992;18.604;2023-05-10T08:24:32;6.00;;;2.10;;
54539;SDS011;40438;52.992;18.604;2023-05-10T08:26:58;5.30;;;1.98;;
54539;SDS011;40438;52.992;18.604;2023-05-10T08:29:23;3.33;;;1.77;;
54539;SDS011;40438;52.992;18.604;2023-05-10T08:31:49;7.45;;;1.77;;
54539;SDS011;40438;52.992;18.604;2023-05-10T08:34:16;6.45;;;1.88;;
54539;SDS011;40438;52.992;18.604;2023-05-10T08:36:42;3.15;;;1.88;;
54539;SDS011;40438;52.992;18.604;2023-05-10T08:39:08;9.05;;;1.98;;
54539;SDS011;40438;52.992;18.604;2023-05-10T08:41:34;6.35;;;1.52;;
54539;SDS011;40438;52.992;18.604;2023-05-10T08:44:02;6.68;;;1.88;;
54539;SDS011;40438;52.992;18.604;2023-05-10T08:46:29;3.70;;;1.90;;
54539;SDS011;40438;52.992;18.604;2023-05-10T08:48:58;7.68;;;1.60;;
54539;SDS011;40438;52.992;18.604;2023-05-10T08:51:28;6.97;;;2.00;;
54539;SDS011;40438;52.992;18.604;2023-05-10T08:54:01;2.80;;;1.88;;
54539;SDS011;40438;52.992;18.604;2023-05-10T08:56:27;7.07;;;2.30;;
54539;SDS011;40438;52.992;18.604;2023-05-10T08:58:52;5.28;;;1.80;;
54539;SDS011;40438;52.992;18.604;2023-05-10T09:01:18;4.40;;;1.75;;
54539;SDS011;40438;52.992;18.604;2023-05-10T09:03:46;3.95;;;1.67;;
54539;SDS011;40438;52.992;18.604;2023-05-10T09:06:12;3.33;;;1.85;;
54539;SDS011;40438;52.992;18.604;2023-05-10T09:08:39;5.15;;;2.00;;
54539;SDS011;40438;52.992;18.604;2023-05-10T09:11:06;4.90;;;1.90;;
54539;SDS011;40438;52.992;18.604;2023-05-10T09:13:32;9.70;;;1.75;;
54539;SDS011;40438;52.992;18.604;2023-05-10T09:15:58;3.28;;;2.15;;
54539;SDS011;40438;52.992;18.604;2023-05-10T09:18:25;5.38;;;2.33;;
54539;SDS011;40438;52.992;18.604;2023-05-10T09:20:51;3.30;;;1.83;;
54539;SDS011;40438;52.992;18.604;2023-05-10T09:23:17;3.47;;;1.80;;
54539;SDS011;40438;52.992;18.604;2023-05-10T09:25:44;6.13;;;1.73;;
54539;SDS011;40438;52.992;18.604;2023-05-10T09:28:10;3.25;;;1.55;;
54539;SDS011;40438;52.992;18.604;2023-05-10T09:30:36;4.95;;;2.13;;
54539;SDS011;40438;52.992;18.604;2023-05-10T09:33:02;3.30;;;1.58;;
54539;SDS011;40438;52.992;18.604;2023-05-10T09:35:28;1.77;;;1.50;;
54539;SDS011;40438;52.992;18.604;2023-05-10T09:37:56;3.17;;;2.00;;
54539;SDS011;40438;52.992;18.604;2023-05-10T09:40:24;2.47;;;2.10;;
54539;SDS011;40438;52.992;18.604;2023-05-10T09:42:52;2.75;;;1.48;;
54539;SDS011;40438;52.992;18.604;2023-05-10T09:45:19;5.00;;;1.70;;
54539;SDS011;40438;52.992;18.604;2023-05-10T09:47:45;5.47;;;2.17;;
54539;SDS011;40438;52.992;18.604;2023-05-10T09:50:11;7.20;;;1.88;;
54539;SDS011;40438;52.992;18.604;2023-05-10T09:52:45;3.58;;;1.63;;
54539;SDS011;40438;52.992;18.604;2023-05-10T09:55:12;3.75;;;1.83;;
54539;SDS011;40438;52.992;18.604;2023-05-10T09:57:38;4.03;;;1.88;;
54539;SDS011;40438;52.992;18.604;2023-05-10T10:00:06;5.75;;;2.00;;
54539;SDS011;40438;52.992;18.604;2023-05-10T10:02:38;11.90;;;1.85;;
54539;SDS011;40438;52.992;18.604;2023-05-10T10:05:05;4.50;;;1.67;;
54539;SDS011;40438;52.992;18.604;2023-05-10T10:07:31;2.90;;;1.60;;
54539;SDS011;40438;52.992;18.604;2023-05-10T10:09:58;4.68;;;1.90;;
54539;SDS011;40438;52.992;18.604;2023-05-10T10:12:24;7.20;;;1.77;;
54539;SDS011;40438;52.992;18.604;2023-05-10T10:14:50;7.28;;;1.70;;
54539;SDS011;40438;52.992;18.604;2023-05-10T10:17:18;7.13;;;1.65;;
54539;SDS011;40438;52.992;18.604;2023-05-10T10:19:45;6.20;;;1.38;;
54539;SDS011;40438;52.992;18.604;2023-05-10T10:22:11;5.93;;;1.50;;
54539;SDS011;40438;52.992;18.604;2023-05-10T10:24:37;5.35;;;1.63;;
54539;SDS011;40438;52.992;18.604;2023-05-10T10:27:07;2.58;;;1.88;;
54539;SDS011;40438;52.992;18.604;2023-05-10T10:29:40;4.40;;;2.47;;
54539;SDS011;40438;52.992;18.604;2023-05-10T10:32:19;5.70;;;1.88;;
54539;SDS011;40438;52.992;18.604;2023-05-10T10:34:48;2.35;;;1.48;;
54539;SDS011;40438;52.992;18.604;2023-05-10T10:37:14;7.70;;;2.03;;
54539;SDS011;40438;52.992;18.604;2023-05-10T10:39:40;8.15;;;1.80;;
54539;SDS011;40438;52.992;18.604;2023-05-10T10:42:06;2.08;;;1.40;;
54539;SDS011;40438;52.992;18.604;2023-05-10T10:44:37;7.80;;;1.73;;
54539;SDS011;40438;52.992;18.604;2023-05-10T10:47:04;5.05;;;1.95;;
54539;SDS011;40438;52.992;18.604;2023-05-10T10:49:34;2.60;;;1.92;;
54539;SDS011;40438;52.992;18.604;2023-05-10T10:52:12;5.03;;;1.95;;
54539;SDS011;40438;52.992;18.604;2023-05-10T10:54:50;4.03;;;1.60;;
54539;SDS011;40438;52.992;18.604;2023-05-10T10:57:17;12.00;;;2.85;;
54539;SDS011;40438;52.992;18.604;2023-05-10T10:59:44;8.23;;;1.80;;
54539;SDS011;40438;52.992;18.604;2023-05-10T11:02:10;2.20;;;1.42;;
54539;SDS011;40438;52.992;18.604;2023-05-10T11:04:57;10.50;;;1.75;;
54539;SDS011;40438;52.992;18.604;2023-05-10T11:07:23;2.38;;;1.50;;
54539;SDS011;40438;52.992;18.604;2023-05-10T11:09:48;4.88;;;1.80;;
54539;SDS011;40438;52.992;18.604;2023-05-10T11:12:14;5.65;;;1.52;;
54539;SDS011;40438;52.992;18.604;2023-05-10T11:14:40;7.15;;;1.75;;
54539;SDS011;40438;52.992;18.604;2023-05-10T11:20:04;3.67;;;2.05;;
54539;SDS011;40438;52.992;18.604;2023-05-10T11:22:33;3.28;;;1.80;;
54539;SDS011;40438;52.992;18.604;2023-05-10T11:25:14;2.97;;;2.00;;
54539;SDS011;40438;52.992;18.604;2023-05-10T11:27:41;6.97;;;2.47;;
54539;SDS011;40438;52.992;18.604;2023-05-10T11:30:07;5.68;;;2.40;;
54539;SDS011;40438;52.992;18.604;2023-05-10T11:32:35;6.18;;;2.63;;
54539;SDS011;40438;52.992;18.604;2023-05-10T11:35:07;6.40;;;3.40;;
54539;SDS011;40438;52.992;18.604;2023-05-10T11:37:34;6.88;;;3.08;;
54539;SDS011;40438;52.992;18.604;2023-05-10T11:40:00;5.40;;;3.03;;
54539;SDS011;40438;52.992;18.604;2023-05-10T11:42:27;6.28;;;3.35;;
54539;SDS011;40438;52.992;18.604;2023-05-10T11:44:53;3.78;;;2.90;;
54539;SDS011;40438;52.992;18.604;2023-05-10T11:47:19;6.53;;;2.60;;
54539;SDS011;40438;52.992;18.604;2023-05-10T11:49:44;4.22;;;2.53;;
54539;SDS011;40438;52.992;18.604;2023-05-10T11:52:12;6.75;;;2.67;;
54539;SDS011;40438;52.992;18.604;2023-05-10T11:54:38;5.65;;;2.50;;
54539;SDS011;40438;52.992;18.604;2023-05-10T11:57:10;10.50;;;2.40;;
54539;SDS011;40438;52.992;18.604;2023-05-10T11:59:36;5.80;;;2.45;;
54539;SDS011;40438;52.992;18.604;2023-05-10T12:02:02;7.72;;;2.70;;
54539;SDS011;40438;52.992;18.604;2023-05-10T12:04:28;4.80;;;2.00;;
54539;SDS011;40438;52.992;18.604;2023-05-10T12:06:53;8.75;;;2.28;;
54539;SDS011;40438;52.992;18.604;2023-05-10T12:09:21;5.22;;;2.05;;
54539;SDS011;40438;52.992;18.604;2023-05-10T12:11:47;3.70;;;1.77;;
54539;SDS011;40438;52.992;18.604;2023-05-10T12:14:12;11.65;;;2.47;;
54539;SDS011;40438;52.992;18.604;2023-05-10T12:16:38;8.75;;;2.30;;
54539;SDS011;40438;52.992;18.604;2023-05-10T12:19:04;5.03;;;1.83;;
54539;SDS011;40438;52.992;18.604;2023-05-10T12:21:30;2.45;;;1.60;;
54539;SDS011;40438;52.992;18.604;2023-05-10T12:23:58;8.30;;;1.73;;
54539;SDS011;40438;52.992;18.604;2023-05-10T12:26:27;6.47;;;2.40;;
54539;SDS011;40438;52.992;18.604;2023-05-10T12:28:53;3.67;;;1.60;;
54539;SDS011;40438;52.992;18.604;2023-05-10T12:31:19;15.02;;;2.00;;
54539;SDS011;40438;52.992;18.604;2023-05-10T12:33:45;4.03;;;2.10;;
54539;SDS011;40438;52.992;18.604;2023-05-10T12:36:11;5.25;;;1.65;;
54539;SDS011;40438;52.992;18.604;2023-05-10T12:38:39;5.18;;;1.67;;
54539;SDS011;40438;52.992;18.604;2023-05-10T12:41:06;5.20;;;1.40;;
54539;SDS011;40438;52.992;18.604;2023-05-10T12:43:35;5.30;;;1.73;;
54539;SDS011;40438;52.992;18.604;2023-05-10T12:46:05;6.00;;;2.00;;
54539;SDS011;40438;52.992;18.604;2023-05-10T12:48:31;3.13;;;1.83;;
54539;SDS011;40438;52.992;18.604;2023-05-10T12:50:57;3.05;;;1.50;;
54539;SDS011;40438;52.992;18.604;2023-05-10T12:53:24;2.25;;;1.95;;
54539;SDS011;40438;52.992;18.604;2023-05-10T12:55:50;3.63;;;1.70;;
54539;SDS011;40438;52.992;18.604;2023-05-10T12:58:16;5.05;;;1.98;;
54539;SDS011;40438;52.992;18.604;2023-05-10T13:00:43;9.88;;;1.77;;
54539;SDS011;40438;52.992;18.604;2023-05-10T13:03:08;7.18;;;1.80;;
54539;SDS011;40438;52.992;18.604;2023-05-10T13:05:34;9.32;;;1.92;;
54539;SDS011;40438;52.992;18.604;2023-05-10T13:08:00;2.05;;;1.50;;
54539;SDS011;40438;52.992;18.604;2023-05-10T13:10:26;6.63;;;1.80;;
54539;SDS011;40438;52.992;18.604;2023-05-10T13:12:53;3.80;;;1.65;;
54539;SDS011;40438;52.992;18.604;2023-05-10T13:15:18;2.50;;;1.98;;
54539;SDS011;40438;52.992;18.604;2023-05-10T13:17:46;1.80;;;1.63;;
54539;SDS011;40438;52.992;18.604;2023-05-10T13:20:11;7.47;;;1.80;;
54539;SDS011;40438;52.992;18.604;2023-05-10T13:22:37;3.65;;;1.90;;
54539;SDS011;40438;52.992;18.604;2023-05-10T13:25:03;3.03;;;1.73;;
54539;SDS011;40438;52.992;18.604;2023-05-10T13:27:29;4.78;;;1.70;;
54539;SDS011;40438;52.992;18.604;2023-05-10T13:29:55;5.10;;;1.92;;
54539;SDS011;40438;52.992;18.604;2023-05-10T13:32:21;2.47;;;1.50;;
54539;SDS011;40438;52.992;18.604;2023-05-10T13:34:48;3.25;;;1.45;;
54539;SDS011;40438;52.992;18.604;2023-05-10T13:37:14;2.72;;;1.75;;
54539;SDS011;40438;52.992;18.604;2023-05-10T13:39:39;5.68;;;1.80;;
54539;SDS011;40438;52.992;18.604;2023-05-10T13:42:05;3.60;;;1.35;;
54539;SDS011;40438;52.992;18.604;2023-05-10T13:44:31;5.85;;;1.85;;
54539;SDS011;40438;52.992;18.604;2023-05-10T13:46:57;5.03;;;1.90;;
54539;SDS011;40438;52.992;18.604;2023-05-10T13:49:22;1.88;;;1.50;;
54539;SDS011;40438;52.992;18.604;2023-05-10T13:51:50;11.10;;;1.77;;
54539;SDS011;40438;52.992;18.604;2023-05-10T13:54:15;9.02;;;2.20;;
54539;SDS011;40438;52.992;18.604;2023-05-10T13:56:41;5.15;;;2.10;;
54539;SDS011;40438;52.992;18.604;2023-05-10T13:59:07;4.57;;;1.50;;
54539;SDS011;40438;52.992;18.604;2023-05-10T14:01:33;2.55;;;1.65;;
54539;SDS011;40438;52.992;18.604;2023-05-10T14:03:59;2.92;;;1.70;;
54539;SDS011;40438;52.992;18.604;2023-05-10T14:06:25;5.28;;;1.67;;
54539;SDS011;40438;52.992;18.604;2023-05-10T14:08:52;3.15;;;1.70;;
54539;SDS011;40438;52.992;18.604;2023-05-10T14:11:18;5.65;;;1.73;;
54539;SDS011;40438;52.992;18.604;2023-05-10T14:13:44;8.13;;;2.10;;
54539;SDS011;40438;52.992;18.604;2023-05-10T14:16:09;9.68;;;2.90;;
54539;SDS011;40438;52.992;18.604;2023-05-10T14:18:35;4.90;;;1.85;;
54539;SDS011;40438;52.992;18.604;2023-05-10T14:21:01;3.20;;;2.05;;
54539;SDS011;40438;52.992;18.604;2023-05-10T14:23:28;5.97;;;2.40;;
54539;SDS011;40438;52.992;18.604;2023-05-10T14:25:55;5.13;;;1.52;;
54539;SDS011;40438;52.992;18.604;2023-05-10T14:28:21;5.10;;;1.70;;
54539;SDS011;40438;52.992;18.604;2023-05-10T14:30:47;4.65;;;1.50;;
54539;SDS011;40438;52.992;18.604;2023-05-10T14:33:13;5.72;;;1.70;;
54539;SDS011;40438;52.992;18.604;2023-05-10T14:35:39;3.22;;;2.00;;
54539;SDS011;40438;52.992;18.604;2023-05-10T14:38:04;2.83;;;2.13;;
54539;SDS011;40438;52.992;18.604;2023-05-10T14:40:30;2.88;;;1.35;;